Time;durP1;ratioP1;P1;durP2;ratioP2;P2;SDS_P1;SDS_P2;PMS_P1;PMS_P2;Temp;Humidity;BMP_temperature;BMP_pressure;BME280_temperature;BME280_humidity;BME280_pressure;Samples;Min_cycle;Max_cycle;Signal;HPM_P1;HPM_P2
2023/09/10 00:01:00;;;;;;;3.80;2.95;;;;;;;26.42;35.50;98864.50;2092007;28;20046;-56
2023/09/10 00:02:01;;;;;;;7.25;3.35;;;;;;;26.45;35.59;98866.72;2093751;28;20055;-50
2023/09/10 00:03:03;;;;;;;4.63;3.17;;;;;;;26.43;35.75;98861.50;2095229;28;20110;-52
2023/09/10 00:04:04;;;;;;;4.82;3.20;;;;;;;26.42;35.69;98857.16;2093789;28;20406;-54
2023/09/10 00:05:08;;;;;;;3.65;3.00;;;;;;;26.45;36.12;98856.66;2093248;28;20044;-49
2023/09/10 00:06:09;;;;;;;3.47;2.97;;;;;;;26.43;35.84;98861.50;2092844;28;20104;-57
2023/09/10 00:07:11;;;;;;;3.03;2.17;;;;;;;26.41;35.38;98857.38;2096974;28;20048;-52
2023/09/10 00:08:12;;;;;;;4.30;3.03;;;;;;;26.40;35.81;98853.03;2094544;28;20174;-53
2023/09/10 00:09:14;;;;;;;5.18;3.40;;;;;;;26.41;35.70;98857.38;2096509;28;22321;-58
2023/09/10 00:10:15;;;;;;;4.00;2.70;;;;;;;26.40;35.72;98856.56;2097191;28;20120;-53
2023/09/10 00:11:17;;;;;;;4.25;2.53;;;;;;;26.39;35.74;98856.84;2096792;28;20126;-55
2023/09/10 00:12:17;;;;;;;4.35;2.70;;;;;;;26.38;35.21;98852.47;2093823;28;20530;-48
2023/09/10 00:13:19;;;;;;;4.53;3.22;;;;;;;26.44;35.23;98852.31;2093608;28;20046;-53
2023/09/10 00:14:20;;;;;;;5.70;2.60;;;;;;;26.42;35.40;98859.06;2095019;28;20052;-56
2023/09/10 00:15:22;;;;;;;3.33;2.85;;;;;;;26.39;35.77;98857.66;2092812;28;20147;-57
2023/09/10 00:16:23;;;;;;;5.97;2.75;;;;;;;26.39;36.10;98863.09;2087528;28;20048;-57
2023/09/10 00:17:25;;;;;;;3.55;2.65;;;;;;;26.40;35.99;98861.19;2094035;28;20100;-55
2023/09/10 00:18:26;;;;;;;3.38;2.30;;;;;;;26.38;35.69;98861.44;2092501;28;20076;-57
2023/09/10 00:19:27;;;;;;;3.55;2.47;;;;;;;26.39;35.52;98857.66;2095459;28;20515;-58
2023/09/10 00:20:30;;;;;;;5.63;3.22;;;;;;;26.46;35.31;98865.63;2093169;28;20040;-60
2023/09/10 00:21:32;;;;;;;4.68;3.53;;;;;;;26.44;35.81;98865.06;2096620;28;20702;-57
2023/09/10 00:22:32;;;;;;;4.40;2.95;;;;;;;26.45;35.93;98867.53;2095406;28;20051;-57
2023/09/10 00:23:33;;;;;;;3.45;2.55;;;;;;;26.42;35.90;98864.50;2095131;28;20127;-51
2023/09/10 00:24:35;;;;;;;3.15;2.85;;;;;;;26.40;35.84;98875.59;2095005;28;20139;-54
2023/09/10 00:25:36;;;;;;;3.00;2.50;;;;;;;26.44;35.23;98863.19;2095646;28;20049;-50
2023/09/10 00:26:37;;;;;;;3.80;3.10;;;;;;;26.44;35.18;98863.19;2094833;28;20044;-55
2023/09/10 00:27:39;;;;;;;6.25;3.17;;;;;;;26.43;35.67;98866.13;2095996;28;20086;-55
2023/09/10 00:28:40;;;;;;;5.05;2.38;;;;;;;26.49;35.60;98865.97;2095465;28;20460;-56
2023/09/10 00:29:42;;;;;;;4.53;3.25;;;;;;;26.43;35.55;98869.66;2095044;28;20139;-49
2023/09/10 00:30:42;;;;;;;8.20;3.35;;;;;;;26.43;35.08;98866.13;2096636;28;20143;-57
2023/09/10 00:31:44;;;;;;;3.97;3.00;;;;;;;26.44;35.48;98860.47;2096625;28;20043;-52
2023/09/10 00:32:45;;;;;;;2.42;2.22;;;;;;;26.42;35.42;98875.38;2094527;28;20048;-57
2023/09/10 00:33:47;;;;;;;4.47;3.22;;;;;;;26.41;36.06;98871.00;2095472;28;20226;-54
2023/09/10 00:34:48;;;;;;;3.67;3.13;;;;;;;26.42;36.00;98859.06;2083854;28;20052;-56
2023/09/10 00:35:51;;;;;;;7.57;2.80;;;;;;;26.41;35.63;98873.72;2088975;28;20054;-55
2023/09/10 00:36:52;;;;;;;3.20;2.80;;;;;;;26.38;35.66;98877.75;2095201;28;21030;-52
2023/09/10 00:37:54;;;;;;;4.50;2.72;;;;;;;26.39;35.87;98867.72;2096679;28;20049;-51
2023/09/10 00:38:55;;;;;;;4.30;3.20;;;;;;;26.36;35.78;98862.78;2097079;28;20044;-53
2023/09/10 00:39:57;;;;;;;6.35;2.67;;;;;;;26.35;35.60;98864.66;2097214;28;20131;-53
2023/09/10 00:40:57;;;;;;;8.23;3.17;;;;;;;26.40;35.71;98866.63;2096337;28;20051;-54
2023/09/10 00:41:59;;;;;;;5.72;3.00;;;;;;;26.36;35.38;98860.88;2097684;28;20055;-52
2023/09/10 00:43:01;;;;;;;5.35;2.90;;;;;;;26.35;35.94;98864.66;2094558;28;20063;-50
2023/09/10 00:44:03;;;;;;;8.32;2.67;;;;;;;26.40;35.92;98853.84;2095038;28;20045;-55
2023/09/10 00:45:05;;;;;;;7.45;3.20;;;;;;;26.40;35.61;98856.56;2095632;28;20591;-54
2023/09/10 00:46:07;;;;;;;4.35;2.80;;;;;;;26.36;35.50;98849.19;2094948;27;20062;-53
2023/09/10 00:47:08;;;;;;;5.93;2.78;;;;;;;26.35;35.92;98851.06;2095383;28;20047;-49
2023/09/10 00:48:10;;;;;;;7.47;3.28;;;;;;;26.35;35.57;98852.97;2095101;28;20051;-52
2023/09/10 00:49:12;;;;;;;8.68;2.67;;;;;;;26.40;35.90;98853.84;2094540;28;20047;-50
2023/09/10 00:50:15;;;;;;;3.33;2.30;;;;;;;26.35;36.03;98853.78;2096397;28;20071;-55
2023/09/10 00:51:18;;;;;;;6.28;3.05;;;;;;;26.41;35.36;98851.94;2091969;28;20062;-53
2023/09/10 00:52:21;;;;;;;2.80;2.40;;;;;;;26.41;35.80;98858.25;2088688;28;20041;-53
2023/09/10 00:53:22;;;;;;;4.45;3.30;;;;;;;26.37;35.56;98857.06;2091852;28;20093;-54
2023/09/10 00:54:25;;;;;;;3.53;2.90;;;;;;;26.40;35.49;98856.56;2095736;28;20379;-51
2023/09/10 00:55:29;;;;;;;3.38;2.75;;;;;;;26.35;35.88;98867.38;2095801;28;20041;-51
2023/09/10 00:56:31;;;;;;;4.20;3.20;;;;;;;26.35;36.10;98869.28;2097927;28;20052;-54
2023/09/10 00:57:32;;;;;;;2.95;2.28;;;;;;;26.34;35.65;98865.75;2095711;28;20131;-51
2023/09/10 00:58:34;;;;;;;4.53;2.83;;;;;;;26.35;35.67;98864.66;2096699;28;20908;-49
2023/09/10 00:59:36;;;;;;;3.72;3.22;;;;;;;26.37;36.02;98864.41;2096445;28;20399;-51
2023/09/10 01:00:38;;;;;;;3.05;2.78;;;;;;;26.37;35.83;98872.56;2094352;28;20136;-51
2023/09/10 01:01:39;;;;;;;3.70;2.25;;;;;;;26.34;35.73;98863.00;2097265;28;20060;-53
2023/09/10 01:02:43;;;;;;;4.78;2.75;;;;;;;26.39;35.94;98859.56;2095751;28;20834;-49
2023/09/10 01:03:44;;;;;;;5.25;2.63;;;;;;;26.36;35.56;98863.59;2093934;28;20045;-56
2023/09/10 01:04:46;;;;;;;3.80;2.47;;;;;;;26.36;35.74;98860.88;2096074;28;20055;-56
2023/09/10 01:05:47;;;;;;;5.70;2.85;;;;;;;26.37;35.65;98857.06;2094692;28;20734;-53
2023/09/10 01:06:50;;;;;;;3.75;2.90;;;;;;;26.37;35.24;98856.25;2093335;28;20059;-50
2023/09/10 01:07:51;;;;;;;2.60;2.03;;;;;;;26.38;35.83;98856.00;2089899;28;20060;-51
2023/09/10 01:08:53;;;;;;;3.83;3.08;;;;;;;26.35;36.02;98859.22;2096152;28;20050;-51
2023/09/10 01:09:54;;;;;;;3.47;2.83;;;;;;;26.35;35.65;98856.50;2094379;28;20048;-48
2023/09/10 01:11:00;;;;;;;3.08;2.38;;;;;;;26.35;35.88;98866.56;2094650;28;20047;-53
2023/09/10 01:12:10;;;;;;;3.30;2.92;;;;;;;26.32;36.10;98859.72;2094426;28;20195;-54
2023/09/10 01:13:20;;;;;;;3.00;2.10;;;;;;;26.34;35.71;98871.19;2098160;28;20048;-50
2023/09/10 01:14:29;;;;;;;3.10;2.72;;;;;;;26.29;36.34;98866.47;2097637;28;20040;-48
2023/09/10 01:15:34;;;;;;;7.40;3.05;;;;;;;26.36;35.96;98863.59;2093708;28;20524;-51
2023/09/10 01:16:55;;;;;;;8.02;2.88;;;;;;;26.41;35.76;98857.38;2094383;28;20606;-53
2023/09/10 01:18:03;;;;;;;6.65;2.83;;;;;;;26.36;36.37;98857.34;2092721;28;20514;-52
2023/09/10 01:19:17;;;;;;;5.13;2.80;;;;;;;26.32;36.23;98865.16;2090999;28;20048;-52
2023/09/10 01:20:44;;;;;;;3.63;2.65;;;;;;;26.31;36.17;98863.53;2090223;28;20066;-52
2023/09/10 01:21:53;;;;;;;3.58;2.47;;;;;;;26.33;36.10;98861.38;2075082;28;20063;-53
2023/09/10 01:23:03;;;;;;;6.07;3.00;;;;;;;26.28;36.38;98859.41;2093569;28;20060;-49
2023/09/10 01:24:14;;;;;;;4.43;2.53;;;;;;;26.36;36.11;98857.34;2092965;28;20055;-52
2023/09/10 01:25:18;;;;;;;3.80;3.10;;;;;;;26.39;35.54;98859.56;2097254;28;20065;-54
2023/09/10 01:26:20;;;;;;;3.25;2.75;;;;;;;26.45;36.00;98864.00;2094247;28;20044;-52
2023/09/10 01:27:21;;;;;;;4.22;3.13;;;;;;;26.42;36.09;98859.88;2093568;28;20055;-47
2023/09/10 01:28:23;;;;;;;3.72;2.47;;;;;;;26.36;36.70;98865.50;2090886;28;20154;-58
2023/09/10 01:29:24;;;;;;;6.50;3.05;;;;;;;26.35;36.30;98870.09;2092047;28;20040;-51
2023/09/10 01:30:25;;;;;;;3.08;2.58;;;;;;;26.36;36.37;98870.94;2092169;28;20151;-56
2023/09/10 01:31:28;;;;;;;3.20;2.72;;;;;;;26.35;36.39;98870.09;2093311;28;20053;-52
2023/09/10 01:32:33;;;;;;;3.75;2.83;;;;;;;26.33;35.90;98866.81;2092690;28;20076;-59
2023/09/10 01:33:38;;;;;;;3.97;2.88;;;;;;;26.36;36.40;98871.75;2091750;28;20518;-54
2023/09/10 01:34:45;;;;;;;5.30;2.83;;;;;;;26.37;36.06;98867.13;2093523;28;20453;-48
2023/09/10 01:35:54;;;;;;;6.70;3.05;;;;;;;26.36;36.07;98871.75;2095257;28;20097;-54
2023/09/10 01:37:02;;;;;;;3.55;2.65;;;;;;;26.30;35.97;98865.41;2085573;28;20056;-53
2023/09/10 01:38:09;;;;;;;6.25;3.42;;;;;;;26.33;36.55;98871.41;2092637;28;20922;-55
2023/09/10 01:39:15;;;;;;;3.45;2.90;;;;;;;26.40;36.33;98878.34;2093279;28;20083;-51
2023/09/10 01:40:22;;;;;;;2.40;2.20;;;;;;;26.38;36.22;98868.78;2094135;28;20056;-56
2023/09/10 01:41:25;;;;;;;3.70;2.47;;;;;;;26.41;36.62;98874.56;2093943;28;20620;-54
2023/09/10 01:42:27;;;;;;;6.18;2.97;;;;;;;26.43;36.07;98877.00;2094320;28;20067;-51
2023/09/10 01:43:29;;;;;;;3.10;2.55;;;;;;;26.42;35.96;98870.75;2094962;28;20487;-49
2023/09/10 01:44:31;;;;;;;4.50;2.83;;;;;;;26.41;36.43;98874.56;2093218;28;20041;-49
2023/09/10 01:45:33;;;;;;;2.70;2.40;;;;;;;26.39;36.63;98876.69;2090560;28;20117;-50
2023/09/10 01:46:37;;;;;;;2.90;2.60;;;;;;;26.44;36.29;98871.34;2095051;28;20052;-54
2023/09/10 01:47:38;;;;;;;3.85;2.70;;;;;;;26.51;35.67;98863.84;2094647;28;20075;-48
2023/09/10 01:48:40;;;;;;;7.30;2.63;;;;;;;26.54;35.56;98872.59;2094748;28;20049;-57
2023/09/10 01:49:41;;;;;;;6.38;4.15;;;;;;;26.45;36.05;98870.25;2095824;28;20054;-55
2023/09/10 01:50:44;;;;;;;2.97;2.50;;;;;;;26.48;35.98;98864.31;2094583;28;20082;-52
2023/09/10 01:51:44;;;;;;;3.13;2.60;;;;;;;26.47;36.09;98865.41;2094709;28;20084;-58
2023/09/10 01:52:46;;;;;;;3.42;2.55;;;;;;;26.43;36.57;98874.28;2093579;28;20059;-58
2023/09/10 01:53:47;;;;;;;4.28;2.33;;;;;;;26.47;36.33;98867.28;2094188;28;20048;-54
2023/09/10 01:54:48;;;;;;;4.47;2.53;;;;;;;26.49;36.19;98870.56;2092833;28;20179;-56
2023/09/10 01:55:52;;;;;;;4.03;2.92;;;;;;;26.43;35.98;98861.50;2093524;28;20058;-52
2023/09/10 01:56:52;;;;;;;4.60;2.35;;;;;;;26.39;36.13;98867.72;2096193;28;20044;-54
2023/09/10 01:57:55;;;;;;;5.00;3.00;;;;;;;26.33;36.41;98866.81;2094718;28;20044;-52
2023/09/10 01:58:56;;;;;;;3.15;2.53;;;;;;;26.34;36.75;98865.75;2095767;28;20054;-54
2023/09/10 01:59:58;;;;;;;6.63;3.05;;;;;;;26.36;36.15;98858.16;2091904;28;20090;-50
2023/09/10 02:00:59;;;;;;;3.95;2.53;;;;;;;26.35;36.46;98853.78;2085525;28;20052;-47
2023/09/10 02:02:00;;;;;;;4.20;2.47;;;;;;;26.41;35.96;98857.38;2096034;28;20127;-49
2023/09/10 02:03:01;;;;;;;6.85;2.80;;;;;;;26.34;36.32;98854.84;2096013;28;20643;-50
2023/09/10 02:04:03;;;;;;;4.57;2.63;;;;;;;26.37;36.25;98857.06;2092373;28;20143;-52
2023/09/10 02:05:05;;;;;;;6.22;3.00;;;;;;;26.44;36.10;98856.88;2094252;28;20055;-52
2023/09/10 02:06:07;;;;;;;2.85;2.60;;;;;;;26.36;36.18;98865.50;2094694;28;20117;-50
2023/09/10 02:07:08;;;;;;;4.07;2.03;;;;;;;26.34;36.10;98857.56;2093432;28;20057;-47
2023/09/10 02:08:09;;;;;;;4.85;2.50;;;;;;;26.43;35.82;98861.50;2089601;28;21129;-56
2023/09/10 02:09:10;;;;;;;3.40;2.78;;;;;;;26.37;35.82;98859.78;2094441;28;20075;-51
2023/09/10 02:10:12;;;;;;;4.95;2.30;;;;;;;26.35;35.96;98855.69;2091484;28;20813;-55
2023/09/10 02:11:14;;;;;;;4.80;2.72;;;;;;;26.37;35.70;98856.25;2094521;28;20094;-57
2023/09/10 02:12:16;;;;;;;3.67;2.35;;;;;;;26.38;36.22;98858.72;2095313;28;20048;-54
2023/09/10 02:13:17;;;;;;;4.47;2.92;;;;;;;26.35;36.38;98863.84;2094403;28;20451;-50
2023/09/10 02:14:19;;;;;;;3.65;2.95;;;;;;;26.42;36.00;98861.78;2095863;28;20044;-51
2023/09/10 02:15:20;;;;;;;7.28;2.92;;;;;;;26.36;35.63;98871.75;2094252;28;20044;-50
2023/09/10 02:16:22;;;;;;;3.85;2.80;;;;;;;26.37;35.67;98867.13;2096091;28;20928;-51
2023/09/10 02:17:23;;;;;;;3.22;2.92;;;;;;;26.36;36.01;98860.88;2094373;28;20105;-49
2023/09/10 02:18:25;;;;;;;3.28;2.70;;;;;;;26.42;35.90;98865.31;2092221;28;20872;-50
2023/09/10 02:19:26;;;;;;;3.58;2.83;;;;;;;26.45;35.34;98862.09;2092506;28;20049;-55
2023/09/10 02:20:28;;;;;;;4.65;3.10;;;;;;;26.57;35.55;98866.63;2094391;28;20083;-54
2023/09/10 02:21:29;;;;;;;4.40;2.50;;;;;;;26.62;35.03;98867.53;2093557;28;20039;-56
2023/09/10 02:22:30;;;;;;;3.85;2.58;;;;;;;26.66;34.99;98860.53;2092990;28;20937;-52
2023/09/10 02:23:31;;;;;;;3.10;2.55;;;;;;;26.66;34.69;98859.69;2091450;28;20568;-51
2023/09/10 02:24:33;;;;;;;2.92;2.63;;;;;;;26.65;34.33;98858.88;2091153;28;20165;-51
2023/09/10 02:25:34;;;;;;;2.97;2.55;;;;;;;26.63;34.80;98860.19;2094223;28;20048;-50
2023/09/10 02:26:37;;;;;;;3.78;2.35;;;;;;;26.64;34.79;98867.28;2092134;28;20168;-51
2023/09/10 02:27:38;;;;;;;3.92;2.70;;;;;;;26.65;35.39;98863.50;2092533;28;22636;-54
2023/09/10 02:28:40;;;;;;;5.57;2.78;;;;;;;26.62;34.64;98870.25;2093587;28;20058;-55
2023/09/10 02:29:41;;;;;;;6.10;3.13;;;;;;;26.63;34.70;98868.34;2091660;28;20219;-47
2023/09/10 02:30:43;;;;;;;2.92;2.45;;;;;;;26.63;35.22;98865.63;2094278;28;21594;-58
2023/09/10 02:31:43;;;;;;;3.42;2.83;;;;;;;26.61;35.02;98868.63;2093586;28;20709;-54
2023/09/10 02:32:45;;;;;;;4.60;3.58;;;;;;;26.62;35.11;98866.72;2084821;28;20057;-55
2023/09/10 02:33:46;;;;;;;5.20;3.20;;;;;;;26.59;35.32;98869.94;2094744;28;20048;-53
2023/09/10 02:34:48;;;;;;;8.02;2.67;;;;;;;26.60;34.89;98863.41;2095036;28;20582;-57
2023/09/10 02:35:49;;;;;;;4.50;3.20;;;;;;;26.61;35.09;98874.06;2091305;28;20052;-55
2023/09/10 02:36:51;;;;;;;3.97;3.03;;;;;;;26.61;35.32;98867.81;2093155;28;20127;-58
2023/09/10 02:37:51;;;;;;;4.32;2.72;;;;;;;26.60;34.94;98874.28;2093829;28;20048;-59
2023/09/10 02:38:53;;;;;;;2.65;2.25;;;;;;;26.58;34.99;98871.00;2093296;28;20046;-55
2023/09/10 02:39:54;;;;;;;3.80;2.80;;;;;;;26.58;35.27;98873.72;2095291;28;20151;-59
2023/09/10 02:40:56;;;;;;;4.97;3.10;;;;;;;26.55;35.15;98868.78;2092958;28;20048;-59
2023/09/10 02:41:59;;;;;;;4.82;2.63;;;;;;;26.54;35.21;98869.88;2095474;28;20589;-56
2023/09/10 02:43:00;;;;;;;3.33;2.72;;;;;;;26.55;34.82;98868.78;2093295;28;20055;-53
2023/09/10 02:44:01;;;;;;;2.22;2.08;;;;;;;26.50;34.86;98864.94;2093944;28;21468;-53
2023/09/10 02:45:03;;;;;;;3.47;2.75;;;;;;;26.48;34.55;98864.31;2094643;28;20044;-59
2023/09/10 02:46:05;;;;;;;6.50;3.15;;;;;;;26.48;34.43;98868.94;2090679;28;20055;-55
2023/09/10 02:47:06;;;;;;;3.55;2.85;;;;;;;26.48;34.63;98866.22;2094081;28;20051;-52
2023/09/10 02:48:07;;;;;;;3.25;2.70;;;;;;;26.49;35.03;98870.56;2094403;28;20600;-54
2023/09/10 02:49:08;;;;;;;6.15;2.67;;;;;;;26.48;34.86;98866.22;2093856;28;20513;-52
2023/09/10 02:50:11;;;;;;;3.40;2.67;;;;;;;26.49;35.80;98867.84;2091562;28;20140;-54
2023/09/10 02:51:11;;;;;;;3.10;2.45;;;;;;;26.47;35.47;98868.13;2094812;28;20040;-53
2023/09/10 02:52:13;;;;;;;3.40;2.63;;;;;;;26.47;35.19;98862.69;2087712;28;20156;-52
2023/09/10 02:53:14;;;;;;;3.78;2.53;;;;;;;26.44;34.61;98867.78;2087820;28;20056;-50
2023/09/10 02:54:16;;;;;;;4.20;2.97;;;;;;;26.48;35.22;98863.50;2091429;28;20047;-54
2023/09/10 02:55:17;;;;;;;3.05;2.05;;;;;;;26.46;35.01;98863.72;2092789;28;20052;-51
2023/09/10 02:56:19;;;;;;;3.83;2.67;;;;;;;26.45;35.75;98864.81;2094820;28;21805;-49
2023/09/10 02:57:21;;;;;;;6.28;2.83;;;;;;;26.49;35.30;98865.13;2095340;28;20059;-54
2023/09/10 02:58:23;;;;;;;3.10;2.80;;;;;;;26.51;35.33;98854.88;2092745;28;20153;-52
2023/09/10 02:59:25;;;;;;;3.03;2.72;;;;;;;26.47;35.38;98861.84;2092367;28;20048;-52
2023/09/10 03:00:27;;;;;;;2.92;2.53;;;;;;;26.46;34.71;98860.19;2085045;28;20140;-53
2023/09/10 03:01:28;;;;;;;3.33;2.95;;;;;;;26.45;35.23;98859.38;2089463;28;20405;-49
2023/09/10 03:02:30;;;;;;;2.75;2.30;;;;;;;26.46;35.47;98863.72;2091606;28;20965;-49
2023/09/10 03:03:31;;;;;;;4.13;2.83;;;;;;;26.49;35.49;98859.69;2093327;28;20051;-51
2023/09/10 03:04:33;;;;;;;6.68;2.88;;;;;;;26.47;35.82;98862.69;2095104;28;20055;-53
2023/09/10 03:05:34;;;;;;;3.17;2.88;;;;;;;26.41;35.69;98865.56;2094239;28;20467;-51
2023/09/10 03:06:35;;;;;;;2.63;2.03;;;;;;;26.44;35.86;98862.34;2094052;28;20095;-54
2023/09/10 03:07:37;;;;;;;4.57;2.67;;;;;;;26.44;35.32;98868.63;2091593;28;20052;-54
2023/09/10 03:08:38;;;;;;;3.05;2.53;;;;;;;26.41;35.84;98860.97;2093001;28;20045;-51
2023/09/10 03:09:40;;;;;;;4.47;2.28;;;;;;;26.47;35.51;98865.41;2095617;28;20143;-54
2023/09/10 03:10:40;;;;;;;2.78;2.47;;;;;;;26.45;35.48;98869.44;2092646;28;20045;-51
2023/09/10 03:11:44;;;;;;;4.60;2.72;;;;;;;26.43;35.12;98866.94;2094282;28;20051;-54
2023/09/10 03:12:46;;;;;;;3.85;2.50;;;;;;;26.43;35.68;98864.22;2091332;28;20040;-53
2023/09/10 03:13:48;;;;;;;3.05;2.78;;;;;;;26.35;35.78;98870.09;2090739;28;20048;-54
2023/09/10 03:14:49;;;;;;;3.33;2.35;;;;;;;26.29;35.68;98868.38;2091522;28;20061;-54
2023/09/10 03:15:51;;;;;;;3.95;2.80;;;;;;;26.34;35.46;98862.19;2091214;28;20053;-54
2023/09/10 03:16:52;;;;;;;4.13;2.58;;;;;;;26.30;35.59;98872.75;2092037;28;20166;-54
2023/09/10 03:17:54;;;;;;;5.05;2.67;;;;;;;26.28;35.56;98861.28;2091889;28;20192;-53
2023/09/10 03:18:54;;;;;;;7.05;3.28;;;;;;;26.27;35.62;98863.19;2090634;28;20060;-53
2023/09/10 03:19:56;;;;;;;3.00;2.67;;;;;;;26.36;35.58;98869.03;2092077;28;20127;-52
2023/09/10 03:20:57;;;;;;;2.80;2.53;;;;;;;26.38;35.08;98866.06;2093103;28;20410;-49
2023/09/10 03:21:59;;;;;;;4.32;3.20;;;;;;;26.35;35.71;98870.09;2093995;28;20055;-49
2023/09/10 03:23:02;;;;;;;3.13;2.50;;;;;;;26.35;35.25;98872.00;2093239;28;20052;-51
2023/09/10 03:24:04;;;;;;;3.53;2.47;;;;;;;26.37;35.34;98870.69;2093449;28;20050;-49
2023/09/10 03:25:06;;;;;;;2.65;2.45;;;;;;;26.37;35.63;98873.41;2091984;28;20044;-49
2023/09/10 03:26:12;;;;;;;3.58;2.78;;;;;;;26.37;35.74;98869.84;2092593;28;20827;-49
2023/09/10 03:27:13;;;;;;;4.25;2.58;;;;;;;26.32;35.97;98867.06;2092671;28;20107;-49
2023/09/10 03:28:16;;;;;;;3.13;2.65;;;;;;;26.28;35.49;98864.84;2092007;28;20733;-50
2023/09/10 03:29:17;;;;;;;3.17;2.50;;;;;;;26.26;35.86;98866.97;2092069;28;20048;-49
2023/09/10 03:30:19;;;;;;;5.53;3.00;;;;;;;26.35;35.49;98870.09;2091650;28;20043;-50
2023/09/10 03:31:20;;;;;;;3.38;2.30;;;;;;;26.29;35.19;98860.22;2092469;28;20047;-50
2023/09/10 03:32:22;;;;;;;4.05;2.30;;;;;;;26.25;36.00;98865.34;2091281;28;20051;-51
2023/09/10 03:33:22;;;;;;;3.00;2.30;;;;;;;26.28;35.49;98864.84;2092225;28;20058;-51
2023/09/10 03:34:23;;;;;;;5.70;2.60;;;;;;;26.24;35.83;98863.69;2093011;28;20044;-53
2023/09/10 03:35:25;;;;;;;3.33;2.30;;;;;;;26.26;35.50;98866.97;2091054;28;20071;-50
2023/09/10 03:36:27;;;;;;;3.08;2.63;;;;;;;26.19;35.39;98860.09;2093401;28;20048;-50
2023/09/10 03:37:28;;;;;;;5.10;2.63;;;;;;;26.16;35.47;98863.25;2093249;28;20044;-50
2023/09/10 03:38:30;;;;;;;3.63;2.70;;;;;;;26.17;35.45;98862.22;2092039;28;20040;-48
2023/09/10 03:39:31;;;;;;;3.20;2.90;;;;;;;26.17;35.94;98862.22;2091226;28;20402;-50
2023/09/10 03:40:33;;;;;;;4.32;2.33;;;;;;;26.17;35.50;98862.22;2094395;28;20163;-49
2023/09/10 03:41:34;;;;;;;5.85;2.28;;;;;;;26.12;35.99;98860.22;2093023;28;20045;-51
2023/09/10 03:42:35;;;;;;;2.92;2.10;;;;;;;26.13;35.71;98861.03;2094751;28;20044;-51
2023/09/10 03:43:40;;;;;;;3.75;2.45;;;;;;;26.15;35.61;98857.00;2092469;28;20051;-49
2023/09/10 03:44:41;;;;;;;3.30;2.20;;;;;;;26.11;35.49;98863.22;2096212;28;20113;-53
2023/09/10 03:45:42;;;;;;;4.22;2.88;;;;;;;26.10;35.34;98856.09;2094168;28;20059;-50
2023/09/10 03:46:44;;;;;;;5.25;2.35;;;;;;;26.11;35.51;98852.34;2094939;28;20048;-50
2023/09/10 03:47:45;;;;;;;2.50;2.30;;;;;;;26.14;35.24;98860.00;2092944;28;20067;-50
2023/09/10 03:48:47;;;;;;;4.63;2.50;;;;;;;26.14;35.57;98855.38;2095781;28;20063;-52
2023/09/10 03:49:48;;;;;;;3.60;2.53;;;;;;;26.14;35.85;98857.28;2093538;28;20050;-51
2023/09/10 03:50:50;;;;;;;3.30;2.78;;;;;;;26.16;35.26;98857.81;2094735;28;20059;-50
2023/09/10 03:51:51;;;;;;;3.78;3.25;;;;;;;26.15;35.42;98853.47;2091583;28;20399;-50
2023/09/10 03:52:53;;;;;;;4.40;2.53;;;;;;;26.16;35.41;98865.97;2094985;28;20048;-53
2023/09/10 03:53:54;;;;;;;3.22;2.60;;;;;;;26.12;35.73;98854.78;2093110;28;20135;-51
2023/09/10 03:54:56;;;;;;;3.08;2.30;;;;;;;26.16;35.38;98857.81;2094293;28;20488;-50
2023/09/10 03:55:57;;;;;;;3.03;2.08;;;;;;;26.19;35.86;98860.91;2094393;28;20145;-51
2023/09/10 03:56:58;;;;;;;3.05;2.70;;;;;;;26.27;34.89;98855.03;2094667;28;20050;-50
2023/09/10 03:57:59;;;;;;;3.40;2.38;;;;;;;26.33;35.00;98866.81;2095467;28;20052;-51
2023/09/10 03:59:02;;;;;;;4.57;2.33;;;;;;;26.29;34.94;98866.47;2096168;28;20044;-51
2023/09/10 04:00:06;;;;;;;3.10;2.80;;;;;;;26.35;34.80;98867.38;2093813;28;20194;-50
2023/09/10 04:01:07;;;;;;;7.55;2.60;;;;;;;26.37;34.73;98859.78;2093027;28;20048;-52
2023/09/10 04:02:09;;;;;;;3.85;2.92;;;;;;;26.33;34.60;98866.81;2094331;28;20044;-51
2023/09/10 04:03:10;;;;;;;3.13;2.78;;;;;;;26.36;34.41;98858.16;2095959;27;20071;-48
2023/09/10 04:04:12;;;;;;;3.65;2.63;;;;;;;26.30;35.03;98856.44;2094584;28;20051;-50
2023/09/10 04:05:13;;;;;;;4.13;2.83;;;;;;;26.32;35.47;98865.16;2094739;28;20059;-49
2023/09/10 04:06:15;;;;;;;3.28;2.70;;;;;;;26.29;35.19;98860.22;2095304;28;20722;-50
2023/09/10 04:07:16;;;;;;;3.50;2.42;;;;;;;26.26;35.32;98855.28;2091198;28;20059;-51
2023/09/10 04:08:17;;;;;;;4.07;2.63;;;;;;;26.31;35.37;98858.09;2096922;28;20058;-49
2023/09/10 04:09:18;;;;;;;4.50;2.65;;;;;;;26.26;35.54;98861.53;2089546;28;20049;-49
2023/09/10 04:10:21;;;;;;;4.63;3.22;;;;;;;26.19;35.67;98852.75;2090166;28;20043;-49
2023/09/10 04:11:21;;;;;;;3.05;2.58;;;;;;;26.23;35.41;98853.88;2095567;28;20128;-52
2023/09/10 04:12:23;;;;;;;5.07;2.45;;;;;;;26.24;35.33;98857.41;2095040;28;20056;-50
2023/09/10 04:13:25;;;;;;;5.10;2.60;;;;;;;26.25;35.11;98854.47;2093846;28;20048;-49
2023/09/10 04:14:30;;;;;;;2.85;2.47;;;;;;;26.21;35.94;98857.91;2093619;28;20052;-51
2023/09/10 04:15:31;;;;;;;4.43;2.42;;;;;;;26.24;35.50;98860.13;2093802;28;20067;-48
2023/09/10 04:16:33;;;;;;;3.45;2.70;;;;;;;26.30;35.66;98857.25;2084908;28;20048;-49
2023/09/10 04:17:34;;;;;;;3.03;2.42;;;;;;;26.40;34.79;98856.56;2085068;28;20052;-50
2023/09/10 04:18:36;;;;;;;2.92;2.30;;;;;;;26.42;34.69;98859.06;2092336;28;20066;-49
2023/09/10 04:19:37;;;;;;;2.63;2.42;;;;;;;26.37;35.00;98861.69;2093073;28;20055;-49
2023/09/10 04:20:38;;;;;;;2.80;2.60;;;;;;;26.22;35.64;98863.13;2094427;28;20047;-49
2023/09/10 04:21:39;;;;;;;3.05;2.30;;;;;;;26.18;35.54;98864.66;2092874;28;20036;-50
2023/09/10 04:22:41;;;;;;;3.00;2.00;;;;;;;26.24;35.32;98860.97;2095057;28;21947;-51
2023/09/10 04:23:42;;;;;;;4.57;2.67;;;;;;;26.25;35.18;98865.34;2093401;28;20048;-50
2023/09/10 04:24:44;;;;;;;4.68;2.63;;;;;;;26.18;35.41;98863.84;2093853;28;20047;-51
2023/09/10 04:25:45;;;;;;;2.63;2.38;;;;;;;26.18;35.46;98863.84;2082661;28;20048;-51
2023/09/10 04:26:47;;;;;;;5.85;2.42;;;;;;;26.28;35.05;98861.28;2083917;28;20059;-51
2023/09/10 04:27:48;;;;;;;3.15;2.03;;;;;;;26.31;35.25;98866.25;2094682;28;20482;-50
2023/09/10 04:28:51;;;;;;;3.45;2.60;;;;;;;26.31;35.54;98860.78;2095345;28;20167;-50
2023/09/10 04:29:54;;;;;;;4.78;2.40;;;;;;;26.25;35.44;98862.63;2094096;28;20079;-50
2023/09/10 04:30:56;;;;;;;2.58;1.95;;;;;;;26.29;35.44;98862.94;2093809;28;20052;-52
2023/09/10 04:31:57;;;;;;;6.38;2.88;;;;;;;26.22;35.78;98870.44;2095188;28;20041;-51
2023/09/10 04:32:59;;;;;;;3.50;2.35;;;;;;;26.15;35.64;98862.44;2094089;28;20151;-51
2023/09/10 04:33:59;;;;;;;2.65;2.20;;;;;;;26.08;35.80;98865.34;2093309;28;20059;-51
2023/09/10 04:35:02;;;;;;;5.55;2.28;;;;;;;26.12;36.07;98864.84;2087221;28;20053;-52
2023/09/10 04:36:05;;;;;;;2.85;2.47;;;;;;;26.09;36.04;98868.88;2094448;28;20071;-50
2023/09/10 04:37:06;;;;;;;4.90;2.40;;;;;;;26.11;36.33;98863.22;2096266;28;22126;-50
2023/09/10 04:38:07;;;;;;;3.65;2.85;;;;;;;26.21;35.87;98866.06;2094582;28;20048;-51
2023/09/10 04:39:08;;;;;;;8.90;2.53;;;;;;;26.24;35.41;98866.41;2094579;28;20564;-53
2023/09/10 04:40:11;;;;;;;4.00;2.20;;;;;;;26.17;36.27;98868.47;2094558;28;20059;-52
2023/09/10 04:41:12;;;;;;;3.55;2.92;;;;;;;26.13;35.68;98867.31;2091075;28;20669;-50
2023/09/10 04:42:14;;;;;;;2.50;2.30;;;;;;;26.19;35.59;98865.50;2095945;28;20156;-50
2023/09/10 04:43:15;;;;;;;4.72;2.35;;;;;;;26.12;36.02;98862.94;2096238;28;20047;-51
2023/09/10 04:44:17;;;;;;;3.30;2.50;;;;;;;26.16;35.90;98865.97;2094404;28;20569;-49
2023/09/10 04:45:19;;;;;;;2.47;2.25;;;;;;;26.24;35.64;98868.28;2095621;28;20044;-53
2023/09/10 04:46:21;;;;;;;3.65;2.55;;;;;;;26.27;35.35;98873.22;2094521;28;20051;-50
2023/09/10 04:47:22;;;;;;;4.82;2.65;;;;;;;26.30;35.10;98867.31;2090852;28;20055;-48
2023/09/10 04:48:24;;;;;;;3.55;2.47;;;;;;;26.34;35.10;98876.63;2094887;28;20043;-51
2023/09/10 04:49:25;;;;;;;3.75;2.85;;;;;;;26.22;35.55;98873.19;2093895;28;20048;-51
2023/09/10 04:50:26;;;;;;;5.75;3.28;;;;;;;26.25;35.33;98870.78;2095056;28;20067;-50
2023/09/10 04:51:27;;;;;;;5.15;2.40;;;;;;;26.25;35.53;98870.78;2093803;28;20477;-51
2023/09/10 04:52:29;;;;;;;3.00;2.80;;;;;;;26.23;35.89;98866.66;2093886;28;20052;-50
2023/09/10 04:53:31;;;;;;;3.17;2.67;;;;;;;26.21;35.71;98866.88;2095723;28;20528;-49